createdAt,value
2019-03-25T00:01:14.304Z,7.12
2019-03-25T00:03:47.587Z,7.67
2019-03-25T00:06:21.084Z,7.17
2019-03-25T00:09:04.886Z,8.05
2019-03-25T00:11:29.352Z,8.03
2019-03-25T00:14:02.841Z,7.70
2019-03-25T00:16:35.825Z,7.45
2019-03-25T00:19:09.285Z,7.20
2019-03-25T00:21:42.803Z,7.35
2019-03-25T00:24:15.745Z,6.67
2019-03-25T00:26:48.804Z,6.80
2019-03-25T00:29:21.566Z,7.17
2019-03-25T00:31:54.904Z,7.22
2019-03-25T00:34:27.946Z,7.65
2019-03-25T00:37:01.046Z,8.18
2019-03-25T00:39:34.325Z,8.73
2019-03-25T00:42:07.853Z,8.33
2019-03-25T00:44:40.626Z,7.85
2019-03-25T00:47:14.185Z,7.50
2019-03-25T00:49:47.245Z,7.58
2019-03-25T00:52:20.124Z,7.85
2019-03-25T00:54:53.085Z,8.48
2019-03-25T00:57:26.044Z,8.10
2019-03-25T00:59:59.005Z,8.15
2019-03-25T01:02:32.326Z,7.80
2019-03-25T01:05:05.202Z,8.08
2019-03-25T01:07:38.184Z,7.70
2019-03-25T01:10:10.966Z,8.13
2019-03-25T01:12:44.104Z,8.53
2019-03-25T01:15:17.344Z,8.48
2019-03-25T01:17:50.704Z,8.35
2019-03-25T01:20:23.553Z,8.50
2019-03-25T01:22:56.485Z,8.55
2019-03-25T01:25:29.445Z,7.65
2019-03-25T01:28:02.988Z,7.58
2019-03-25T01:30:36.164Z,7.53
2019-03-25T01:33:09.365Z,7.78
2019-03-25T01:35:43.185Z,8.23
2019-03-25T01:38:16.792Z,7.53
2019-03-25T01:40:53.332Z,8.23
2019-03-25T01:43:26.505Z,8.23
2019-03-25T01:45:59.464Z,7.85
2019-03-25T01:48:32.885Z,7.40
2019-03-25T01:51:05.924Z,8.23
2019-03-25T01:53:39.213Z,8.35
2019-03-25T01:56:12.004Z,7.87
2019-03-25T01:58:44.827Z,7.60
2019-03-25T02:01:18.047Z,7.97
2019-03-25T02:03:51.093Z,8.23
2019-03-25T02:06:24.164Z,10.38
2019-03-25T02:08:57.324Z,11.08
2019-03-25T02:11:30.904Z,9.70
2019-03-25T02:14:03.805Z,9.98
2019-03-25T02:16:36.805Z,8.53
2019-03-25T02:19:10.145Z,8.90
2019-03-25T02:21:43.193Z,10.18
2019-03-25T02:24:16.044Z,8.73
2019-03-25T02:26:49.205Z,9.98
2019-03-25T02:29:22.204Z,10.03
2019-03-25T02:31:55.426Z,9.98
2019-03-25T02:34:28.405Z,9.20
2019-03-25T02:37:01.346Z,11.70
2019-03-25T02:39:34.552Z,11.18
2019-03-25T02:42:07.424Z,11.12
2019-03-25T02:44:40.806Z,11.50
2019-03-25T02:47:13.566Z,10.58
2019-03-25T02:49:46.410Z,9.95
2019-03-25T02:52:19.444Z,11.45
2019-03-25T02:54:52.267Z,11.78
2019-03-25T02:57:25.146Z,9.75
2019-03-25T02:59:58.040Z,10.08
2019-03-25T03:02:30.975Z,9.45
2019-03-25T03:05:03.926Z,9.28
2019-03-25T03:07:36.737Z,8.55
2019-03-25T03:10:09.945Z,9.70
2019-03-25T03:12:43.129Z,9.80
2019-03-25T03:15:16.886Z,10.28
2019-03-25T03:17:50.096Z,10.23
2019-03-25T03:20:23.965Z,10.40
2019-03-25T03:22:57.072Z,11.15
2019-03-25T03:25:30.108Z,10.40
2019-03-25T03:28:03.035Z,10.43
2019-03-25T03:30:36.124Z,10.05
2019-03-25T03:33:09.926Z,10.15
2019-03-25T03:35:46.371Z,12.07
2019-03-25T03:38:18.405Z,11.45
2019-03-25T03:40:51.699Z,12.33
2019-03-25T03:43:24.510Z,12.88
2019-03-25T03:45:57.845Z,11.63
2019-03-25T03:48:30.814Z,10.80
2019-03-25T03:51:03.689Z,10.35
2019-03-25T03:53:36.466Z,10.58
2019-03-25T03:56:13.297Z,10.63
2019-03-25T03:58:44.246Z,12.95
2019-03-25T04:01:17.799Z,14.00
2019-03-25T04:03:50.625Z,14.20
2019-03-25T04:06:23.646Z,13.90
2019-03-25T04:08:57.095Z,13.00
2019-03-25T04:11:29.967Z,13.03
2019-03-25T04:14:02.724Z,12.85
2019-03-25T04:16:35.815Z,13.18
2019-03-25T04:19:08.906Z,14.23
2019-03-25T04:21:42.245Z,13.35
2019-03-25T04:24:15.108Z,14.03
2019-03-25T04:26:48.566Z,14.95
2019-03-25T04:29:21.647Z,14.73
2019-03-25T04:31:54.525Z,14.40
2019-03-25T04:34:28.465Z,15.05
2019-03-25T04:37:01.233Z,14.55
2019-03-25T04:39:34.326Z,13.65
2019-03-25T04:42:07.426Z,13.30
2019-03-25T04:44:40.304Z,25.37
2019-03-25T04:47:13.245Z,14.70
2019-03-25T04:49:46.145Z,14.28
2019-03-25T04:52:18.985Z,14.13
2019-03-25T04:54:51.905Z,199.82
2019-03-25T04:57:24.765Z,20.95
2019-03-25T04:59:57.804Z,15.15
2019-03-25T05:02:31.085Z,15.00
2019-03-25T05:05:03.793Z,15.60
2019-03-25T05:07:36.617Z,14.93
2019-03-25T05:10:09.785Z,15.93
2019-03-25T05:12:42.666Z,20.08
2019-03-25T05:15:16.325Z,17.75
2019-03-25T05:17:49.765Z,15.98
2019-03-25T05:20:22.627Z,16.45
2019-03-25T05:22:55.528Z,15.98
2019-03-25T05:25:28.399Z,16.87
2019-03-25T05:28:01.232Z,17.27
2019-03-25T05:30:34.531Z,16.73
2019-03-25T05:33:07.364Z,18.02
2019-03-25T05:35:41.405Z,17.70
2019-03-25T05:38:14.744Z,17.40
2019-03-25T05:40:47.524Z,17.10
2019-03-25T05:43:21.290Z,18.92
2019-03-25T05:45:54.269Z,18.45
2019-03-25T05:48:27.184Z,18.40
2019-03-25T05:51:00.106Z,17.30
2019-03-25T05:53:33.065Z,17.80
2019-03-25T05:56:06.085Z,16.40
2019-03-25T05:58:39.008Z,16.07
2019-03-25T06:01:14.424Z,18.17
2019-03-25T06:03:47.265Z,17.57
2019-03-25T06:06:20.125Z,19.35
2019-03-25T06:08:53.045Z,18.30
2019-03-25T06:11:25.805Z,16.52
2019-03-25T06:13:58.704Z,17.35
2019-03-25T06:16:36.412Z,16.30
2019-03-25T06:21:42.085Z,16.15
2019-03-25T06:24:16.005Z,15.80
2019-03-25T06:26:49.075Z,15.98
2019-03-25T06:29:21.944Z,15.63
2019-03-25T06:31:54.860Z,16.30
2019-03-25T06:34:27.806Z,17.10
2019-03-25T06:37:00.584Z,18.12
2019-03-25T06:39:33.445Z,17.48
2019-03-25T06:42:06.346Z,17.32
2019-03-25T06:44:39.466Z,17.00
2019-03-25T06:47:12.281Z,19.02
2019-03-25T06:49:45.365Z,19.07
2019-03-25T06:52:18.238Z,19.62
2019-03-25T06:54:51.173Z,18.55
2019-03-25T06:57:25.777Z,18.50
2019-03-25T06:59:59.124Z,17.77
2019-03-25T07:02:31.965Z,18.17
2019-03-25T07:05:04.985Z,18.60
2019-03-25T07:07:38.245Z,19.75
2019-03-25T07:10:11.168Z,18.52
2019-03-25T07:12:44.165Z,17.50
2019-03-25T07:15:17.449Z,17.05
2019-03-25T07:17:50.324Z,16.82
2019-03-25T07:20:24.125Z,16.77
2019-03-25T07:22:57.126Z,17.62
2019-03-25T07:25:29.986Z,17.20
2019-03-25T07:28:02.730Z,16.45
2019-03-25T07:30:35.925Z,15.45
2019-03-25T07:33:08.865Z,17.20
2019-03-25T07:35:41.852Z,19.82
2019-03-25T07:38:14.736Z,18.48
2019-03-25T07:40:47.925Z,16.40
2019-03-25T07:43:20.746Z,19.50
2019-03-25T07:45:53.845Z,23.92
2019-03-25T07:48:26.766Z,24.52
2019-03-25T07:50:59.665Z,26.10
2019-03-25T07:53:33.306Z,24.02
2019-03-25T07:56:06.852Z,23.40
2019-03-25T07:58:39.969Z,23.85
2019-03-25T08:01:13.164Z,23.83
2019-03-25T08:03:46.562Z,18.55
2019-03-25T08:06:19.496Z,23.42
2019-03-25T08:09:03.141Z,23.18
2019-03-25T08:11:27.402Z,24.50
2019-03-25T08:14:00.321Z,22.65
2019-03-25T08:16:33.307Z,20.65
2019-03-25T08:19:06.205Z,20.62
2019-03-25T08:21:39.046Z,23.02
2019-03-25T08:24:12.585Z,24.00
2019-03-25T08:26:45.474Z,26.48
2019-03-25T08:29:19.004Z,23.25
2019-03-25T08:31:52.313Z,21.55
2019-03-25T08:34:25.233Z,23.10
2019-03-25T08:36:58.246Z,24.30
2019-03-25T08:39:32.085Z,25.08
2019-03-25T08:42:04.966Z,23.62
2019-03-25T08:44:37.985Z,26.33
2019-03-25T08:47:10.985Z,25.43
2019-03-25T08:49:44.425Z,27.73
2019-03-25T08:52:17.327Z,27.35
2019-03-25T08:54:50.565Z,27.25
2019-03-25T08:57:23.846Z,27.13
2019-03-25T08:59:57.792Z,29.20
2019-03-25T09:02:31.974Z,26.80
2019-03-25T09:05:05.046Z,29.10
2019-03-25T09:07:38.273Z,27.22
2019-03-25T09:10:11.146Z,29.00
2019-03-25T09:12:44.446Z,26.62
2019-03-25T09:15:17.268Z,26.68
2019-03-25T09:17:50.766Z,26.65
2019-03-25T09:20:24.325Z,27.67
2019-03-25T09:22:57.285Z,28.20
2019-03-25T09:25:30.985Z,27.07
2019-03-25T09:28:03.844Z,28.83
2019-03-25T09:30:36.624Z,27.30
2019-03-25T09:33:09.771Z,28.92
2019-03-25T09:35:42.631Z,27.40
2019-03-25T09:38:16.066Z,28.05
2019-03-25T09:40:48.993Z,26.48
2019-03-25T09:43:21.845Z,27.48
2019-03-25T09:45:54.849Z,26.48
2019-03-25T09:48:27.885Z,25.95
2019-03-25T09:51:00.764Z,25.88
2019-03-25T09:53:33.753Z,27.05
2019-03-25T09:56:06.564Z,26.85
2019-03-25T09:58:39.665Z,26.90
2019-03-25T10:01:12.625Z,28.45
2019-03-25T10:03:45.613Z,29.05
2019-03-25T10:06:18.492Z,26.65
2019-03-25T10:08:52.585Z,28.80
2019-03-25T10:11:25.433Z,26.12
2019-03-25T10:13:58.765Z,26.37
2019-03-25T10:16:31.645Z,29.80
2019-03-25T10:19:04.489Z,29.23
2019-03-25T10:21:37.466Z,29.57
2019-03-25T10:24:10.960Z,28.65
2019-03-25T10:26:43.772Z,28.98
2019-03-25T10:29:20.445Z,29.87
2019-03-25T10:34:26.105Z,29.15
2019-03-25T10:36:58.973Z,27.98
2019-03-25T10:39:32.084Z,29.12
2019-03-25T10:42:04.966Z,29.75
2019-03-25T10:44:38.366Z,29.05
2019-03-25T10:47:11.925Z,28.65
2019-03-25T10:49:44.825Z,28.65
2019-03-25T10:52:17.765Z,27.98
2019-03-25T10:54:50.951Z,27.75
2019-03-25T10:57:24.126Z,28.17
2019-03-25T10:59:57.664Z,29.18
2019-03-25T11:02:30.504Z,30.80
2019-03-25T11:05:03.581Z,31.90
2019-03-25T11:07:36.997Z,29.45
2019-03-25T11:10:10.524Z,31.23
2019-03-25T11:12:43.764Z,31.57
2019-03-25T11:15:16.625Z,31.15
2019-03-25T11:17:49.624Z,30.97
2019-03-25T11:20:22.414Z,32.13
2019-03-25T11:22:55.645Z,31.50
2019-03-25T11:25:28.664Z,32.98
2019-03-25T11:28:01.868Z,31.27
2019-03-25T11:30:34.854Z,31.65
2019-03-25T11:33:07.744Z,31.42
2019-03-25T11:35:41.224Z,32.58
2019-03-25T11:38:14.645Z,33.20
2019-03-25T11:40:47.844Z,31.07
2019-03-25T11:43:20.764Z,29.57
2019-03-25T11:45:53.665Z,29.70
2019-03-25T11:48:27.004Z,29.85
2019-03-25T11:51:00.380Z,28.38
2019-03-25T11:53:33.784Z,30.88
2019-03-25T11:56:06.805Z,29.57
2019-03-25T11:58:39.652Z,28.87
2019-03-25T12:01:12.564Z,28.92
2019-03-25T12:03:45.525Z,25.40
2019-03-25T12:06:19.048Z,25.05
2019-03-25T12:08:51.821Z,24.25
2019-03-25T12:11:25.544Z,26.27
2019-03-25T12:13:58.727Z,24.60
2019-03-25T12:16:31.687Z,23.60
2019-03-25T12:19:04.624Z,26.25
2019-03-25T12:21:37.846Z,24.77
2019-03-25T12:24:10.765Z,26.73
2019-03-25T12:26:44.244Z,12.82
2019-03-25T12:29:17.484Z,15.18
2019-03-25T12:31:50.464Z,17.48
2019-03-25T12:34:23.427Z,21.60
2019-03-25T12:36:56.364Z,22.93
2019-03-25T12:39:29.564Z,20.12
2019-03-25T12:42:02.764Z,25.40
2019-03-25T12:44:35.665Z,22.40
2019-03-25T12:47:08.904Z,10.50
2019-03-25T12:49:42.005Z,8.35
2019-03-25T12:52:15.343Z,6.53
2019-03-25T12:54:48.824Z,6.67
2019-03-25T12:57:21.665Z,5.58
2019-03-25T12:59:55.164Z,5.58
2019-03-25T13:02:28.485Z,4.80
2019-03-25T13:05:01.611Z,4.83
2019-03-25T13:07:34.385Z,4.90
2019-03-25T13:10:07.427Z,5.15
2019-03-25T13:12:40.484Z,4.80
2019-03-25T13:15:13.906Z,4.10
2019-03-25T13:17:46.804Z,3.30
2019-03-25T13:20:19.605Z,3.10
2019-03-25T13:22:52.612Z,3.17
2019-03-25T13:25:26.052Z,2.87
2019-03-25T13:27:58.945Z,2.80
2019-03-25T13:30:31.970Z,2.47
2019-03-25T13:33:04.924Z,2.50
2019-03-25T13:35:38.204Z,2.50
2019-03-25T13:38:11.125Z,2.08
2019-03-25T13:40:44.572Z,2.10
2019-03-25T13:43:17.785Z,1.75
2019-03-25T13:45:50.605Z,1.90
2019-03-25T13:48:23.685Z,1.70
2019-03-25T13:50:56.824Z,1.98
2019-03-25T13:53:30.814Z,1.45
2019-03-25T13:56:03.684Z,1.30
2019-03-25T13:58:37.086Z,1.25
2019-03-25T14:01:10.506Z,1.57
2019-03-25T14:03:43.385Z,1.47
2019-03-25T14:06:16.724Z,1.02
2019-03-25T14:08:49.766Z,1.00
2019-03-25T14:11:22.524Z,1.17
2019-03-25T14:13:55.845Z,1.05
2019-03-25T14:16:28.985Z,1.30
2019-03-25T14:19:01.829Z,1.20
2019-03-25T14:21:34.696Z,1.25
2019-03-25T14:24:07.605Z,1.25
2019-03-25T14:26:40.407Z,1.20
2019-03-25T14:29:13.527Z,1.40
2019-03-25T14:31:47.205Z,1.45
2019-03-25T14:34:20.353Z,1.60
2019-03-25T14:36:53.266Z,1.40
2019-03-25T14:39:26.753Z,1.52
2019-03-25T14:41:59.611Z,1.47
2019-03-25T14:44:32.395Z,2.00
2019-03-25T14:47:05.125Z,1.77
2019-03-25T14:49:37.985Z,2.10
2019-03-25T14:52:10.945Z,2.40
2019-03-25T14:54:44.345Z,2.25
2019-03-25T14:57:17.165Z,1.92
2019-03-25T14:59:50.564Z,2.30
2019-03-25T15:02:23.953Z,2.10
2019-03-25T15:04:56.987Z,2.08
2019-03-25T15:07:30.254Z,1.90
2019-03-25T15:10:03.216Z,1.70
2019-03-25T15:12:36.134Z,1.77
2019-03-25T15:15:09.868Z,2.22
2019-03-25T15:17:43.445Z,1.77
2019-03-25T15:20:16.445Z,2.35
2019-03-25T15:22:49.853Z,2.27
2019-03-25T15:25:23.164Z,2.35
2019-03-25T15:27:56.085Z,1.85
2019-03-25T15:30:35.980Z,2.10
2019-03-25T15:33:04.065Z,2.52
2019-03-25T15:35:37.044Z,2.17
2019-03-25T15:38:10.033Z,2.50
2019-03-25T15:40:43.045Z,2.50
2019-03-25T15:43:16.105Z,2.85
2019-03-25T15:45:51.853Z,2.70
2019-03-25T15:48:24.245Z,2.83
2019-03-25T15:50:57.572Z,2.65
2019-03-25T15:53:30.493Z,2.98
2019-03-25T15:56:03.456Z,2.55
2019-03-25T15:58:36.393Z,2.52
2019-03-25T16:01:09.705Z,2.50
2019-03-25T16:03:42.564Z,2.33
2019-03-25T16:06:15.433Z,2.47
2019-03-25T16:08:48.885Z,2.25
2019-03-25T16:11:21.984Z,2.33
2019-03-25T16:13:55.907Z,1.90
2019-03-25T16:16:29.093Z,2.05
2019-03-25T16:19:01.836Z,1.95
2019-03-25T16:21:34.684Z,2.15
2019-03-25T16:24:07.899Z,2.10
2019-03-25T16:26:40.961Z,2.10
2019-03-25T16:29:13.764Z,2.30
2019-03-25T16:31:47.067Z,1.90
2019-03-25T16:34:20.045Z,2.12
2019-03-25T16:36:53.446Z,2.15
2019-03-25T16:39:26.426Z,1.82
2019-03-25T16:41:59.408Z,2.05
2019-03-25T16:44:32.325Z,2.00
2019-03-25T16:47:05.205Z,2.05
2019-03-25T16:49:38.045Z,1.95
2019-03-25T16:52:11.568Z,2.40
2019-03-25T16:54:44.373Z,2.15
2019-03-25T16:57:17.373Z,2.60
2019-03-25T16:59:50.225Z,2.45
2019-03-25T17:02:23.085Z,4.65
2019-03-25T17:04:55.966Z,3.20
2019-03-25T17:07:28.945Z,2.90
2019-03-25T17:10:02.230Z,2.27
2019-03-25T17:12:35.004Z,2.80
2019-03-25T17:15:08.089Z,2.40
2019-03-25T17:17:41.685Z,4.75
2019-03-25T17:20:14.525Z,3.00
2019-03-25T17:22:47.353Z,8.90
2019-03-25T17:25:20.604Z,4.62
2019-03-25T17:27:53.873Z,8.38
2019-03-25T17:30:26.814Z,4.10
2019-03-25T17:32:59.772Z,5.83
2019-03-25T17:35:32.546Z,5.85
2019-03-25T17:38:05.367Z,3.45
2019-03-25T17:40:38.825Z,2.87
2019-03-25T17:43:11.905Z,3.62
2019-03-25T17:45:44.805Z,6.03
2019-03-25T17:48:17.666Z,2.50
2019-03-25T17:50:52.909Z,2.80
2019-03-25T17:53:25.687Z,5.40
2019-03-25T17:55:58.596Z,3.37
2019-03-25T17:58:31.429Z,2.70
2019-03-25T18:01:05.888Z,2.05
2019-03-25T18:03:38.886Z,2.60
2019-03-25T18:06:11.784Z,1.75
2019-03-25T18:08:44.680Z,2.90
2019-03-25T18:11:18.084Z,1.70
2019-03-25T18:13:51.010Z,1.40
2019-03-25T18:16:23.974Z,1.20
2019-03-25T18:18:57.309Z,1.50
2019-03-25T18:21:30.293Z,1.50
2019-03-25T18:24:03.103Z,1.60
2019-03-25T18:26:35.977Z,1.17
2019-03-25T18:29:08.830Z,1.17
2019-03-25T18:31:43.685Z,0.95
2019-03-25T18:34:16.383Z,1.00
2019-03-25T18:36:51.569Z,1.10
2019-03-25T18:39:24.366Z,0.98
2019-03-25T18:41:57.381Z,1.00
2019-03-25T18:44:30.424Z,1.10
2019-03-25T18:47:03.298Z,1.20
2019-03-25T18:49:36.106Z,1.30
2019-03-25T18:52:09.072Z,19.82
2019-03-25T18:54:42.045Z,1.20
2019-03-25T18:57:15.020Z,3.08
2019-03-25T18:59:47.907Z,7.83
2019-03-25T19:02:22.407Z,3.25
2019-03-25T19:04:55.355Z,1.22
2019-03-25T19:07:28.607Z,1.20
2019-03-25T19:10:01.617Z,1.00
2019-03-25T19:12:34.388Z,1.20
2019-03-25T19:15:07.290Z,1.30
2019-03-25T19:17:41.470Z,1.12
2019-03-25T19:20:14.425Z,1.15
2019-03-25T19:22:47.144Z,1.32
2019-03-25T19:25:20.010Z,1.22
2019-03-25T19:27:53.337Z,1.15
2019-03-25T19:30:26.200Z,1.10
2019-03-25T19:32:58.929Z,1.50
2019-03-25T19:35:32.166Z,1.30
2019-03-25T19:38:05.127Z,1.30
2019-03-25T19:40:38.266Z,1.32
2019-03-25T19:43:10.985Z,1.20
2019-03-25T19:45:43.946Z,1.12
2019-03-25T19:48:17.325Z,1.02
2019-03-25T19:50:50.298Z,1.17
2019-03-25T19:53:23.205Z,1.20
2019-03-25T19:55:56.345Z,1.37
2019-03-25T19:58:29.482Z,1.32
2019-03-25T20:01:02.467Z,1.20
2019-03-25T20:03:35.304Z,1.12
2019-03-25T20:06:08.230Z,1.30
2019-03-25T20:08:41.018Z,1.40
2019-03-25T20:11:13.950Z,1.30
2019-03-25T20:13:47.242Z,1.37
2019-03-25T20:16:20.151Z,1.25
2019-03-25T20:18:53.016Z,1.50
2019-03-25T20:21:25.885Z,1.40
2019-03-25T20:23:58.928Z,1.40
2019-03-25T20:26:31.907Z,1.40
2019-03-25T20:29:06.495Z,1.57
2019-03-25T20:31:39.501Z,1.30
2019-03-25T20:34:12.447Z,1.20
2019-03-25T20:36:45.358Z,1.35
2019-03-25T20:39:19.396Z,1.50
2019-03-25T20:41:52.375Z,1.50
2019-03-25T20:44:25.232Z,1.50
2019-03-25T20:46:58.182Z,1.55
2019-03-25T20:49:31.166Z,1.22
2019-03-25T20:52:04.107Z,1.55
2019-03-25T20:54:36.965Z,1.40
2019-03-25T20:57:10.030Z,1.35
2019-03-25T20:59:43.438Z,1.52
2019-03-25T21:02:16.306Z,1.10
2019-03-25T21:04:49.501Z,1.10
2019-03-25T21:07:22.820Z,1.00
2019-03-25T21:09:55.736Z,1.20
2019-03-25T21:12:28.963Z,1.40
2019-03-25T21:15:02.305Z,1.40
2019-03-25T21:17:35.355Z,1.30
2019-03-25T21:20:08.231Z,1.40
2019-03-25T21:22:40.993Z,1.55
2019-03-25T21:25:14.023Z,1.52
2019-03-25T21:27:46.924Z,1.47
2019-03-25T21:30:19.693Z,1.47
2019-03-25T21:32:58.176Z,1.77
2019-03-25T21:35:27.693Z,1.50
2019-03-25T21:38:00.649Z,1.42
2019-03-25T21:40:34.599Z,1.55
2019-03-25T21:43:07.779Z,1.77
2019-03-25T21:45:40.797Z,1.80
2019-03-25T21:48:13.876Z,1.40
2019-03-25T21:50:46.744Z,1.60
2019-03-25T21:53:19.851Z,1.60
2019-03-25T21:55:53.028Z,1.60
2019-03-25T21:58:26.215Z,1.65
2019-03-25T22:00:59.144Z,1.75
2019-03-25T22:03:32.585Z,1.55
2019-03-25T22:06:05.444Z,1.32
2019-03-25T22:08:38.524Z,1.47
2019-03-25T22:11:11.944Z,1.50
2019-03-25T22:13:45.844Z,1.02
2019-03-25T22:16:18.744Z,1.22
2019-03-25T22:18:52.153Z,1.40
2019-03-25T22:21:25.896Z,1.02
2019-03-25T22:23:58.884Z,0.85
2019-03-25T22:26:32.284Z,0.90
2019-03-25T22:29:05.124Z,0.90
2019-03-25T22:31:38.105Z,1.20
2019-03-25T22:34:11.147Z,1.00
2019-03-25T22:36:43.865Z,1.00
2019-03-25T22:39:16.832Z,1.10
2019-03-25T22:41:49.820Z,0.90
2019-03-25T22:44:22.724Z,1.30
2019-03-25T22:46:55.968Z,1.00
2019-03-25T22:49:28.753Z,0.98
2019-03-25T22:52:01.704Z,1.10
2019-03-25T22:54:34.725Z,1.17
2019-03-25T22:57:07.705Z,1.20
2019-03-25T22:59:40.885Z,1.20
2019-03-25T23:02:13.766Z,0.90
2019-03-25T23:04:46.685Z,0.90
2019-03-25T23:07:19.947Z,0.95
2019-03-25T23:09:52.805Z,1.00
2019-03-25T23:12:26.333Z,0.90
2019-03-25T23:14:59.215Z,0.90
2019-03-25T23:17:32.453Z,1.02
2019-03-25T23:20:05.524Z,1.00
2019-03-25T23:22:38.392Z,1.12
2019-03-25T23:25:11.645Z,0.70
2019-03-25T23:27:44.748Z,0.93
2019-03-25T23:30:17.595Z,0.80
2019-03-25T23:32:51.166Z,0.70
2019-03-25T23:35:24.085Z,0.80
2019-03-25T23:37:56.852Z,0.70
2019-03-25T23:40:30.634Z,0.68
2019-03-25T23:43:03.664Z,0.60
2019-03-25T23:45:36.807Z,0.70
2019-03-25T23:48:09.884Z,0.60
2019-03-25T23:50:42.729Z,0.55
2019-03-25T23:53:17.165Z,0.70
2019-03-25T23:55:50.085Z,0.57
2019-03-25T23:58:23.150Z,0.47
